sensor_id;sensor_type;location;lat;lon;timestamp;pressure;altitude;pressure_sealevel;temperature
40047;BMP280;31510;48.122;11.576;2022-12-29T00:01:13;95488.06;;;5.21
40047;BMP280;31510;48.122;11.576;2022-12-29T00:03:38;95480.03;;;5.25
40047;BMP280;31510;48.122;11.576;2022-12-29T00:06:04;95483.44;;;5.25
40047;BMP280;31510;48.122;11.576;2022-12-29T00:08:29;95485.69;;;5.27
40047;BMP280;31510;48.122;11.576;2022-12-29T00:11:15;95478.56;;;5.24
40047;BMP280;31510;48.122;11.576;2022-12-29T00:13:41;95480.88;;;5.22
40047;BMP280;31510;48.122;11.576;2022-12-29T00:16:25;95469.56;;;5.21
40047;BMP280;31510;48.122;11.576;2022-12-29T00:18:51;95463.09;;;5.22
40047;BMP280;31510;48.122;11.576;2022-12-29T00:21:19;95474.34;;;5.26
40047;BMP280;31510;48.122;11.576;2022-12-29T00:24:03;95466.41;;;5.26
40047;BMP280;31510;48.122;11.576;2022-12-29T00:26:49;95467.19;;;5.27
40047;BMP280;31510;48.122;11.576;2022-12-29T00:29:33;95468.31;;;5.26
40047;BMP280;31510;48.122;11.576;2022-12-29T00:32:17;95460.47;;;5.22
40047;BMP280;31510;48.122;11.576;2022-12-29T00:35:01;95459.00;;;5.21
40047;BMP280;31510;48.122;11.576;2022-12-29T00:37:33;95464.34;;;5.18
40047;BMP280;31510;48.122;11.576;2022-12-29T00:40:17;95464.75;;;5.16
40047;BMP280;31510;48.122;11.576;2022-12-29T00:43:01;95452.75;;;5.12
40047;BMP280;31510;48.122;11.576;2022-12-29T00:45:45;95455.47;;;5.09
40047;BMP280;31510;48.122;11.576;2022-12-29T00:48:10;95456.97;;;5.10
40047;BMP280;31510;48.122;11.576;2022-12-29T00:50:35;95472.41;;;5.11
40047;BMP280;31510;48.122;11.576;2022-12-29T00:53:00;95459.94;;;5.12
40047;BMP280;31510;48.122;11.576;2022-12-29T00:55:26;95460.28;;;5.14
40047;BMP280;31510;48.122;11.576;2022-12-29T00:57:51;95455.72;;;5.14
40047;BMP280;31510;48.122;11.576;2022-12-29T01:00:16;95459.13;;;5.15
40047;BMP280;31510;48.122;11.576;2022-12-29T01:02:41;95462.91;;;5.14
40047;BMP280;31510;48.122;11.576;2022-12-29T01:05:07;95458.44;;;5.11
40047;BMP280;31510;48.122;11.576;2022-12-29T01:07:32;95461.91;;;5.08
40047;BMP280;31510;48.122;11.576;2022-12-29T01:09:58;95464.56;;;5.08
40047;BMP280;31510;48.122;11.576;2022-12-29T01:12:35;95467.13;;;5.11
40047;BMP280;31510;48.122;11.576;2022-12-29T01:15:10;95461.06;;;5.11
40047;BMP280;31510;48.122;11.576;2022-12-29T01:17:35;95463.72;;;5.11
40047;BMP280;31510;48.122;11.576;2022-12-29T01:20:01;95462.56;;;5.12
40047;BMP280;31510;48.122;11.576;2022-12-29T01:22:27;95475.06;;;5.11
40047;BMP280;31510;48.122;11.576;2022-12-29T01:24:52;95468.66;;;5.09
40047;BMP280;31510;48.122;11.576;2022-12-29T01:27:17;95466.50;;;5.04
40047;BMP280;31510;48.122;11.576;2022-12-29T01:29:43;95469.63;;;4.99
40047;BMP280;31510;48.122;11.576;2022-12-29T01:32:08;95467.81;;;4.96
40047;BMP280;31510;48.122;11.576;2022-12-29T01:34:33;95475.72;;;4.96
40047;BMP280;31510;48.122;11.576;2022-12-29T01:36:59;95478.38;;;4.96
40047;BMP280;31510;48.122;11.576;2022-12-29T01:39:24;95473.41;;;4.98
40047;BMP280;31510;48.122;11.576;2022-12-29T01:41:49;95470.44;;;4.96
40047;BMP280;31510;48.122;11.576;2022-12-29T01:44:53;95479.84;;;4.97
40047;BMP280;31510;48.122;11.576;2022-12-29T01:49:48;95469.22;;;5.00
40047;BMP280;31510;48.122;11.576;2022-12-29T01:52:14;95479.03;;;5.00
40047;BMP280;31510;48.122;11.576;2022-12-29T01:54:43;95482.03;;;5.02
40047;BMP280;31510;48.122;11.576;2022-12-29T01:57:13;95472.94;;;5.03
40047;BMP280;31510;48.122;11.576;2022-12-29T01:59:47;95472.94;;;5.03
40047;BMP280;31510;48.122;11.576;2022-12-29T02:02:14;95472.88;;;5.06
40047;BMP280;31510;48.122;11.576;2022-12-29T02:04:41;95467.25;;;5.04
40047;BMP280;31510;48.122;11.576;2022-12-29T02:07:21;95460.06;;;5.05
40047;BMP280;31510;48.122;11.576;2022-12-29T02:09:49;95457.03;;;5.06
40047;BMP280;31510;48.122;11.576;2022-12-29T02:12:16;95449.78;;;5.10
40047;BMP280;31510;48.122;11.576;2022-12-29T02:14:43;95452.81;;;5.09
40047;BMP280;31510;48.122;11.576;2022-12-29T02:27:57;95464.81;;;5.13
40047;BMP280;31510;48.122;11.576;2022-12-29T02:41:41;95455.09;;;5.26
40047;BMP280;31510;48.122;11.576;2022-12-29T02:44:38;95452.78;;;5.28
40047;BMP280;31510;48.122;11.576;2022-12-29T02:47:16;95447.84;;;5.30
40047;BMP280;31510;48.122;11.576;2022-12-29T02:50:01;95446.69;;;5.31
40047;BMP280;31510;48.122;11.576;2022-12-29T02:52:35;95447.44;;;5.31
40047;BMP280;31510;48.122;11.576;2022-12-29T02:55:02;95440.25;;;5.32
40047;BMP280;31510;48.122;11.576;2022-12-29T02:57:31;95433.81;;;5.33
40047;BMP280;31510;48.122;11.576;2022-12-29T03:00:08;95440.16;;;5.35
40047;BMP280;31510;48.122;11.576;2022-12-29T03:10:58;95430.63;;;5.41
40047;BMP280;31510;48.122;11.576;2022-12-29T03:16:34;95427.22;;;5.56
40047;BMP280;31510;48.122;11.576;2022-12-29T03:19:23;95419.22;;;5.60
40047;BMP280;31510;48.122;11.576;2022-12-29T03:21:55;95414.94;;;5.66
40047;BMP280;31510;48.122;11.576;2022-12-29T03:24:44;95415.19;;;5.71
40047;BMP280;31510;48.122;11.576;2022-12-29T03:27:15;95404.97;;;5.73
40047;BMP280;31510;48.122;11.576;2022-12-29T03:29:43;95413.56;;;5.77
40047;BMP280;31510;48.122;11.576;2022-12-29T03:32:11;95415.31;;;5.84
40047;BMP280;31510;48.122;11.576;2022-12-29T03:34:38;95408.03;;;5.88
40047;BMP280;31510;48.122;11.576;2022-12-29T03:37:14;95407.19;;;5.91
40047;BMP280;31510;48.122;11.576;2022-12-29T03:39:41;95406.72;;;5.96
40047;BMP280;31510;48.122;11.576;2022-12-29T03:42:10;95399.00;;;6.01
40047;BMP280;31510;48.122;11.576;2022-12-29T03:44:40;95397.75;;;6.05
40047;BMP280;31510;48.122;11.576;2022-12-29T03:47:06;95402.22;;;6.08
40047;BMP280;31510;48.122;11.576;2022-12-29T03:49:32;95404.03;;;6.11
40047;BMP280;31510;48.122;11.576;2022-12-29T03:51:58;95402.47;;;6.14
40047;BMP280;31510;48.122;11.576;2022-12-29T03:54:23;95405.34;;;6.19
40047;BMP280;31510;48.122;11.576;2022-12-29T03:56:49;95401.13;;;6.22
40047;BMP280;31510;48.122;11.576;2022-12-29T03:59:14;95400.59;;;6.27
40047;BMP280;31510;48.122;11.576;2022-12-29T04:01:42;95397.56;;;6.28
40047;BMP280;31510;48.122;11.576;2022-12-29T04:04:07;95397.13;;;6.30
40047;BMP280;31510;48.122;11.576;2022-12-29T04:06:32;95398.63;;;6.31
40047;BMP280;31510;48.122;11.576;2022-12-29T04:08:58;95395.13;;;6.34
40047;BMP280;31510;48.122;11.576;2022-12-29T04:11:23;95395.38;;;6.39
40047;BMP280;31510;48.122;11.576;2022-12-29T04:13:48;95392.22;;;6.44
40047;BMP280;31510;48.122;11.576;2022-12-29T04:16:14;95386.09;;;6.47
40047;BMP280;31510;48.122;11.576;2022-12-29T04:18:39;95393.22;;;6.50
40047;BMP280;31510;48.122;11.576;2022-12-29T04:21:05;95390.13;;;6.51
40047;BMP280;31510;48.122;11.576;2022-12-29T04:23:33;95397.25;;;6.54
40047;BMP280;31510;48.122;11.576;2022-12-29T04:25:59;95400.63;;;6.55
40047;BMP280;31510;48.122;11.576;2022-12-29T04:28:24;95411.47;;;6.60
40047;BMP280;31510;48.122;11.576;2022-12-29T04:30:50;95391.03;;;6.61
40047;BMP280;31510;48.122;11.576;2022-12-29T04:33:15;95388.38;;;6.61
40047;BMP280;31510;48.122;11.576;2022-12-29T04:35:41;95398.22;;;6.60
40047;BMP280;31510;48.122;11.576;2022-12-29T04:38:06;95399.59;;;6.65
40047;BMP280;31510;48.122;11.576;2022-12-29T04:40:32;95389.34;;;6.67
40047;BMP280;31510;48.122;11.576;2022-12-29T04:42:57;95385.53;;;6.68
40047;BMP280;31510;48.122;11.576;2022-12-29T04:45:22;95388.50;;;6.70
40047;BMP280;31510;48.122;11.576;2022-12-29T04:47:48;95384.25;;;6.72
40047;BMP280;31510;48.122;11.576;2022-12-29T04:50:13;95383.53;;;6.72
40047;BMP280;31510;48.122;11.576;2022-12-29T04:52:38;95383.09;;;6.73
40047;BMP280;31510;48.122;11.576;2022-12-29T04:55:04;95382.38;;;6.73
40047;BMP280;31510;48.122;11.576;2022-12-29T04:57:30;95377.41;;;6.75
40047;BMP280;31510;48.122;11.576;2022-12-29T04:59:55;95381.50;;;6.75
40047;BMP280;31510;48.122;11.576;2022-12-29T05:02:20;95381.84;;;6.77
40047;BMP280;31510;48.122;11.576;2022-12-29T05:04:46;95388.94;;;6.80
40047;BMP280;31510;48.122;11.576;2022-12-29T05:07:11;95391.19;;;6.82
40047;BMP280;31510;48.122;11.576;2022-12-29T05:09:36;95391.91;;;6.82
40047;BMP280;31510;48.122;11.576;2022-12-29T05:12:02;95390.44;;;6.81
40047;BMP280;31510;48.122;11.576;2022-12-29T05:14:27;95389.28;;;6.82
40047;BMP280;31510;48.122;11.576;2022-12-29T05:16:52;95390.00;;;6.83
40047;BMP280;31510;48.122;11.576;2022-12-29T05:19:18;95393.09;;;6.81
40047;BMP280;31510;48.122;11.576;2022-12-29T05:21:43;95385.88;;;6.82
40047;BMP280;31510;48.122;11.576;2022-12-29T05:24:09;95395.75;;;6.81
40047;BMP280;31510;48.122;11.576;2022-12-29T05:26:34;95393.84;;;6.82
40047;BMP280;31510;48.122;11.576;2022-12-29T05:29:06;95410.06;;;6.84
40047;BMP280;31510;48.122;11.576;2022-12-29T05:31:32;95399.88;;;6.82
40047;BMP280;31510;48.122;11.576;2022-12-29T05:33:57;95399.88;;;6.82
40047;BMP280;31510;48.122;11.576;2022-12-29T05:36:22;95389.28;;;6.82
40047;BMP280;31510;48.122;11.576;2022-12-29T05:38:48;95401.06;;;6.81
40047;BMP280;31510;48.122;11.576;2022-12-29T05:41:13;95395.00;;;6.81
40047;BMP280;31510;48.122;11.576;2022-12-29T05:43:38;95381.00;;;6.80
40047;BMP280;31510;48.122;11.576;2022-12-29T05:46:04;95390.13;;;6.79
40047;BMP280;31510;48.122;11.576;2022-12-29T05:48:29;95390.13;;;6.79
40047;BMP280;31510;48.122;11.576;2022-12-29T05:50:55;95390.53;;;6.78
40047;BMP280;31510;48.122;11.576;2022-12-29T05:53:20;95385.97;;;6.78
40047;BMP280;31510;48.122;11.576;2022-12-29T05:55:49;95385.66;;;6.76
40047;BMP280;31510;48.122;11.576;2022-12-29T05:58:16;95381.50;;;6.75
40047;BMP280;31510;48.122;11.576;2022-12-29T06:00:41;95385.34;;;6.75
40047;BMP280;31510;48.122;11.576;2022-12-29T06:03:07;95389.47;;;6.75
40047;BMP280;31510;48.122;11.576;2022-12-29T06:05:32;95387.22;;;6.74
40047;BMP280;31510;48.122;11.576;2022-12-29T06:07:57;95387.66;;;6.73
40047;BMP280;31510;48.122;11.576;2022-12-29T06:10:22;95394.13;;;6.72
40047;BMP280;31510;48.122;11.576;2022-12-29T06:12:48;95386.91;;;6.72
40047;BMP280;31510;48.122;11.576;2022-12-29T06:15:13;95391.88;;;6.70
40047;BMP280;31510;48.122;11.576;2022-12-29T06:17:39;95386.59;;;6.70
40047;BMP280;31510;48.122;11.576;2022-12-29T06:20:06;95387.31;;;6.71
40047;BMP280;31510;48.122;11.576;2022-12-29T06:22:31;95380.88;;;6.72
40047;BMP280;31510;48.122;11.576;2022-12-29T06:24:57;95391.16;;;6.70
40047;BMP280;31510;48.122;11.576;2022-12-29T06:27:22;95390.84;;;6.68
40047;BMP280;31510;48.122;11.576;2022-12-29T06:29:47;95392.72;;;6.67
40047;BMP280;31510;48.122;11.576;2022-12-29T06:32:13;95400.34;;;6.65
40047;BMP280;31510;48.122;11.576;2022-12-29T06:34:38;95399.28;;;6.63
40047;BMP280;31510;48.122;11.576;2022-12-29T06:37:03;95389.44;;;6.63
40047;BMP280;31510;48.122;11.576;2022-12-29T06:39:28;95395.03;;;6.65
40047;BMP280;31510;48.122;11.576;2022-12-29T06:41:54;95391.75;;;6.61
40047;BMP280;31510;48.122;11.576;2022-12-29T06:44:22;95394.00;;;6.63
40047;BMP280;31510;48.122;11.576;2022-12-29T06:46:49;95395.03;;;6.65
40047;BMP280;31510;48.122;11.576;2022-12-29T06:49:14;95393.25;;;6.62
40047;BMP280;31510;48.122;11.576;2022-12-29T06:51:39;95392.06;;;6.63
40047;BMP280;31510;48.122;11.576;2022-12-29T06:54:05;95392.84;;;6.64
40047;BMP280;31510;48.122;11.576;2022-12-29T06:56:30;95402.66;;;6.63
40047;BMP280;31510;48.122;11.576;2022-12-29T06:58:56;95397.69;;;6.65
40047;BMP280;31510;48.122;11.576;2022-12-29T07:01:21;95395.03;;;6.65
40047;BMP280;31510;48.122;11.576;2022-12-29T07:03:46;95404.59;;;6.63
40047;BMP280;31510;48.122;11.576;2022-12-29T07:06:12;95405.75;;;6.62
40047;BMP280;31510;48.122;11.576;2022-12-29T07:08:47;95399.69;;;6.61
40047;BMP280;31510;48.122;11.576;2022-12-29T07:11:25;95398.97;;;6.61
40047;BMP280;31510;48.122;11.576;2022-12-29T07:13:50;95403.84;;;6.62
40047;BMP280;31510;48.122;11.576;2022-12-29T07:16:15;95414.84;;;6.61
40047;BMP280;31510;48.122;11.576;2022-12-29T07:18:41;95417.94;;;6.59
40047;BMP280;31510;48.122;11.576;2022-12-29T07:21:07;95420.47;;;6.63
40047;BMP280;31510;48.122;11.576;2022-12-29T07:23:32;95426.94;;;6.62
40047;BMP280;31510;48.122;11.576;2022-12-29T07:26:02;95426.19;;;6.61
40047;BMP280;31510;48.122;11.576;2022-12-29T07:28:27;95437.13;;;6.63
40047;BMP280;31510;48.122;11.576;2022-12-29T07:30:53;95429.16;;;6.63
40047;BMP280;31510;48.122;11.576;2022-12-29T07:33:18;95429.16;;;6.63
40047;BMP280;31510;48.122;11.576;2022-12-29T07:35:43;95423.97;;;6.60
40047;BMP280;31510;48.122;11.576;2022-12-29T07:38:08;95432.75;;;6.57
40047;BMP280;31510;48.122;11.576;2022-12-29T07:40:34;95430.84;;;6.57
40047;BMP280;31510;48.122;11.576;2022-12-29T07:42:59;95434.66;;;6.56
40047;BMP280;31510;48.122;11.576;2022-12-29T07:45:24;95433.25;;;6.52
40047;BMP280;31510;48.122;11.576;2022-12-29T07:47:50;95437.06;;;6.51
40047;BMP280;31510;48.122;11.576;2022-12-29T07:50:15;95433.25;;;6.52
40047;BMP280;31510;48.122;11.576;2022-12-29T07:52:40;95437.38;;;6.53
40047;BMP280;31510;48.122;11.576;2022-12-29T07:55:06;95439.22;;;6.56
40047;BMP280;31510;48.122;11.576;2022-12-29T07:57:31;95443.69;;;6.59
40047;BMP280;31510;48.122;11.576;2022-12-29T07:59:57;95442.81;;;6.62
40047;BMP280;31510;48.122;11.576;2022-12-29T08:02:22;95438.19;;;6.66
40047;BMP280;31510;48.122;11.576;2022-12-29T08:04:47;95447.53;;;6.70
40047;BMP280;31510;48.122;11.576;2022-12-29T08:07:13;95441.00;;;6.75
40047;BMP280;31510;48.122;11.576;2022-12-29T08:09:38;95451.09;;;6.79
40047;BMP280;31510;48.122;11.576;2022-12-29T08:12:03;95445.25;;;6.84
40047;BMP280;31510;48.122;11.576;2022-12-29T08:14:28;95443.59;;;6.90
40047;BMP280;31510;48.122;11.576;2022-12-29T08:16:54;95434.78;;;6.93
40047;BMP280;31510;48.122;11.576;2022-12-29T08:19:19;95441.91;;;6.96
40047;BMP280;31510;48.122;11.576;2022-12-29T08:21:44;95442.63;;;6.97
40047;BMP280;31510;48.122;11.576;2022-12-29T08:24:10;95442.53;;;7.00
40047;BMP280;31510;48.122;11.576;2022-12-29T08:26:35;95437.56;;;7.02
40047;BMP280;31510;48.122;11.576;2022-12-29T08:29:00;95442.75;;;7.06
40047;BMP280;31510;48.122;11.576;2022-12-29T08:31:26;95442.25;;;7.11
40047;BMP280;31510;48.122;11.576;2022-12-29T08:33:51;95426.34;;;7.11
40047;BMP280;31510;48.122;11.576;2022-12-29T08:36:16;95435.78;;;7.12
40047;BMP280;31510;48.122;11.576;2022-12-29T08:38:42;95438.44;;;7.12
40047;BMP280;31510;48.122;11.576;2022-12-29T08:41:07;95441.72;;;7.15
40047;BMP280;31510;48.122;11.576;2022-12-29T08:43:33;95446.53;;;7.20
40047;BMP280;31510;48.122;11.576;2022-12-29T08:45:58;95440.59;;;7.29
40047;BMP280;31510;48.122;11.576;2022-12-29T08:48:24;95444.00;;;7.42
40047;BMP280;31510;48.122;11.576;2022-12-29T08:50:50;95433.72;;;7.56
40047;BMP280;31510;48.122;11.576;2022-12-29T08:53:16;95435.53;;;7.71
40047;BMP280;31510;48.122;11.576;2022-12-29T08:55:44;95435.09;;;7.85
40047;BMP280;31510;48.122;11.576;2022-12-29T08:58:10;95430.63;;;7.94
40047;BMP280;31510;48.122;11.576;2022-12-29T09:00:40;95436.66;;;8.07
40047;BMP280;31510;48.122;11.576;2022-12-29T09:03:05;95440.50;;;8.19
40047;BMP280;31510;48.122;11.576;2022-12-29T09:05:30;95447.72;;;8.31
40047;BMP280;31510;48.122;11.576;2022-12-29T09:07:56;95439.84;;;8.39
40047;BMP280;31510;48.122;11.576;2022-12-29T09:10:21;95444.91;;;8.46
40047;BMP280;31510;48.122;11.576;2022-12-29T09:12:46;95441.69;;;8.51
40047;BMP280;31510;48.122;11.576;2022-12-29T09:15:11;95438.50;;;8.56
40047;BMP280;31510;48.122;11.576;2022-12-29T09:17:37;95452.72;;;8.62
40047;BMP280;31510;48.122;11.576;2022-12-29T09:20:07;95457.06;;;8.69
40047;BMP280;31510;48.122;11.576;2022-12-29T09:22:34;95450.16;;;8.71
40047;BMP280;31510;48.122;11.576;2022-12-29T09:24:59;95459.59;;;8.72
40047;BMP280;31510;48.122;11.576;2022-12-29T09:27:24;95454.56;;;8.74
40047;BMP280;31510;48.122;11.576;2022-12-29T09:29:49;95454.28;;;8.72
40047;BMP280;31510;48.122;11.576;2022-12-29T09:32:15;95455.78;;;8.73
40047;BMP280;31510;48.122;11.576;2022-12-29T09:34:40;95466.84;;;8.72
40047;BMP280;31510;48.122;11.576;2022-12-29T09:37:05;95460.31;;;8.73
40047;BMP280;31510;48.122;11.576;2022-12-29T09:39:31;95453.13;;;8.73
40047;BMP280;31510;48.122;11.576;2022-12-29T09:41:59;95456.81;;;8.75
40047;BMP280;31510;48.122;11.576;2022-12-29T09:44:43;95454.47;;;8.77
40047;BMP280;31510;48.122;11.576;2022-12-29T09:47:13;95443.28;;;8.82
40047;BMP280;31510;48.122;11.576;2022-12-29T09:49:48;95442.84;;;8.84
40047;BMP280;31510;48.122;11.576;2022-12-29T09:55:04;95434.31;;;8.89
40047;BMP280;31510;48.122;11.576;2022-12-29T09:57:42;95433.03;;;8.93
40047;BMP280;31510;48.122;11.576;2022-12-29T10:00:18;95428.00;;;8.95
40047;BMP280;31510;48.122;11.576;2022-12-29T10:02:52;95426.00;;;8.99
40047;BMP280;31510;48.122;11.576;2022-12-29T10:05:26;95423.94;;;9.03
40047;BMP280;31510;48.122;11.576;2022-12-29T10:10:37;95402.41;;;9.10
40047;BMP280;31510;48.122;11.576;2022-12-29T10:16:07;95407.66;;;9.22
40047;BMP280;31510;48.122;11.576;2022-12-29T10:18:53;95407.81;;;9.28
40047;BMP280;31510;48.122;11.576;2022-12-29T10:21:59;95401.22;;;9.32
40047;BMP280;31510;48.122;11.576;2022-12-29T10:24:28;95406.72;;;9.38
40047;BMP280;31510;48.122;11.576;2022-12-29T10:26:55;95387.19;;;9.41
40047;BMP280;31510;48.122;11.576;2022-12-29T10:29:26;95406.00;;;9.46
40047;BMP280;31510;48.122;11.576;2022-12-29T10:32:05;95397.56;;;9.48
40047;BMP280;31510;48.122;11.576;2022-12-29T10:34:36;95416.97;;;9.48
40047;BMP280;31510;48.122;11.576;2022-12-29T10:37:09;95410.44;;;9.49
40047;BMP280;31510;48.122;11.576;2022-12-29T10:39:49;95417.25;;;9.50
40047;BMP280;31510;48.122;11.576;2022-12-29T10:42:35;95407.78;;;9.49
40047;BMP280;31510;48.122;11.576;2022-12-29T10:45:02;95414.59;;;9.50
40047;BMP280;31510;48.122;11.576;2022-12-29T10:47:33;95410.75;;;9.51
40047;BMP280;31510;48.122;11.576;2022-12-29T10:50:02;95400.84;;;9.52
40047;BMP280;31510;48.122;11.576;2022-12-29T10:52:28;95393.19;;;9.54
40047;BMP280;31510;48.122;11.576;2022-12-29T10:54:59;95385.06;;;9.57
40047;BMP280;31510;48.122;11.576;2022-12-29T10:57:40;95380.34;;;9.61
40047;BMP280;31510;48.122;11.576;2022-12-29T11:00:22;95392.78;;;9.64
40047;BMP280;31510;48.122;11.576;2022-12-29T11:03:17;95384.19;;;9.69
40047;BMP280;31510;48.122;11.576;2022-12-29T11:08:18;95362.50;;;9.79
40047;BMP280;31510;48.122;11.576;2022-12-29T11:10:45;95376.59;;;9.89
40047;BMP280;31510;48.122;11.576;2022-12-29T11:13:15;95357.22;;;9.97
40047;BMP280;31510;48.122;11.576;2022-12-29T11:15:43;95353.13;;;10.05
40047;BMP280;31510;48.122;11.576;2022-12-29T11:20:49;95352.41;;;10.22
40047;BMP280;31510;48.122;11.576;2022-12-29T11:26:22;95344.56;;;10.45
40047;BMP280;31510;48.122;11.576;2022-12-29T11:31:50;95336.69;;;10.69
40047;BMP280;31510;48.122;11.576;2022-12-29T11:34:25;95334.59;;;10.81
40047;BMP280;31510;48.122;11.576;2022-12-29T11:37:00;95328.94;;;10.88
40047;BMP280;31510;48.122;11.576;2022-12-29T11:42:00;95321.81;;;11.03
40047;BMP280;31510;48.122;11.576;2022-12-29T11:44:31;95332.16;;;11.10
40047;BMP280;31510;48.122;11.576;2022-12-29T11:46:59;95337.63;;;11.15
40047;BMP280;31510;48.122;11.576;2022-12-29T11:49:25;95327.97;;;11.18
40047;BMP280;31510;48.122;11.576;2022-12-29T11:51:52;95332.72;;;11.23
40047;BMP280;31510;48.122;11.576;2022-12-29T11:54:27;95338.06;;;11.23
40047;BMP280;31510;48.122;11.576;2022-12-29T11:56:53;95321.59;;;11.24
40047;BMP280;31510;48.122;11.576;2022-12-29T12:02:01;95331.94;;;11.31
40047;BMP280;31510;48.122;11.576;2022-12-29T12:04:30;95331.66;;;11.29
40047;BMP280;31510;48.122;11.576;2022-12-29T12:07:17;95323.22;;;11.31
40047;BMP280;31510;48.122;11.576;2022-12-29T12:09:51;95327.78;;;11.30
40047;BMP280;31510;48.122;11.576;2022-12-29T12:12:47;95323.94;;;11.31
40047;BMP280;31510;48.122;11.576;2022-12-29T12:15:19;95317.41;;;11.32
40047;BMP280;31510;48.122;11.576;2022-12-29T12:18:31;95318.88;;;11.33
40047;BMP280;31510;48.122;11.576;2022-12-29T12:21:08;95310.72;;;11.37
40047;BMP280;31510;48.122;11.576;2022-12-29T12:24:16;95310.56;;;11.40
40047;BMP280;31510;48.122;11.576;2022-12-29T12:29:55;95301.34;;;11.50
40047;BMP280;31510;48.122;11.576;2022-12-29T12:32:29;95288.13;;;11.56
40047;BMP280;31510;48.122;11.576;2022-12-29T12:35:03;95286.03;;;11.59
40047;BMP280;31510;48.122;11.576;2022-12-29T12:43:04;95291.75;;;11.67
40047;BMP280;31510;48.122;11.576;2022-12-29T12:48:34;95293.38;;;11.73
40047;BMP280;31510;48.122;11.576;2022-12-29T12:51:29;95280.28;;;11.75
40047;BMP280;31510;48.122;11.576;2022-12-29T12:59:45;95272.00;;;11.96
40047;BMP280;31510;48.122;11.576;2022-12-29T13:25:45;95264.53;;;11.77
40047;BMP280;31510;48.122;11.576;2022-12-29T13:30:20;95267.44;;;11.65
40047;BMP280;31510;48.122;11.576;2022-12-29T13:32:57;95268.78;;;11.60
40047;BMP280;31510;48.122;11.576;2022-12-29T13:38:16;95262.22;;;11.47
40047;BMP280;31510;48.122;11.576;2022-12-29T13:40:45;95265.91;;;11.41
40047;BMP280;31510;48.122;11.576;2022-12-29T13:43:13;95265.06;;;11.35
40047;BMP280;31510;48.122;11.576;2022-12-29T13:45:41;95276.34;;;11.30
40047;BMP280;31510;48.122;11.576;2022-12-29T13:48:15;95278.91;;;11.24
40047;BMP280;31510;48.122;11.576;2022-12-29T13:50:53;95277.41;;;11.23
40047;BMP280;31510;48.122;11.576;2022-12-29T13:56:15;95286.34;;;11.20
40047;BMP280;31510;48.122;11.576;2022-12-29T13:58:55;95289.44;;;11.19
40047;BMP280;31510;48.122;11.576;2022-12-29T14:01:34;95286.03;;;11.18
40047;BMP280;31510;48.122;11.576;2022-12-29T14:04:03;95277.56;;;11.20
40047;BMP280;31510;48.122;11.576;2022-12-29T14:06:35;95285.72;;;11.16
40047;BMP280;31510;48.122;11.576;2022-12-29T14:09:26;95280.28;;;11.11
40047;BMP280;31510;48.122;11.576;2022-12-29T14:11:51;95286.69;;;11.05
40047;BMP280;31510;48.122;11.576;2022-12-29T14:14:25;95281.94;;;11.00
40047;BMP280;31510;48.122;11.576;2022-12-29T14:16:53;95291.00;;;10.93
40047;BMP280;31510;48.122;11.576;2022-12-29T14:19:34;95284.81;;;10.87
40047;BMP280;31510;48.122;11.576;2022-12-29T14:22:04;95279.34;;;10.82
40047;BMP280;31510;48.122;11.576;2022-12-29T14:26:58;95284.53;;;10.76
40047;BMP280;31510;48.122;11.576;2022-12-29T14:31:49;95300.69;;;10.73
40047;BMP280;31510;48.122;11.576;2022-12-29T14:37:03;95294.47;;;10.67
40047;BMP280;31510;48.122;11.576;2022-12-29T14:39:40;95304.09;;;10.65
40047;BMP280;31510;48.122;11.576;2022-12-29T14:47:51;95303.22;;;10.50
40047;BMP280;31510;48.122;11.576;2022-12-29T14:50:41;95303.84;;;10.45
40047;BMP280;31510;48.122;11.576;2022-12-29T14:53:43;95304.28;;;10.43
40047;BMP280;31510;48.122;11.576;2022-12-29T14:56:11;95298.66;;;10.41
40047;BMP280;31510;48.122;11.576;2022-12-29T15:01:27;95301.19;;;10.36
40047;BMP280;31510;48.122;11.576;2022-12-29T15:03:58;95304.72;;;10.33
40047;BMP280;31510;48.122;11.576;2022-12-29T15:06:27;95317.75;;;10.31
40047;BMP280;31510;48.122;11.576;2022-12-29T15:11:44;95312.28;;;10.26
40047;BMP280;31510;48.122;11.576;2022-12-29T15:14:31;95306.97;;;10.26
40047;BMP280;31510;48.122;11.576;2022-12-29T15:16:57;95315.38;;;10.24
40047;BMP280;31510;48.122;11.576;2022-12-29T15:19:24;95313.91;;;10.23
40047;BMP280;31510;48.122;11.576;2022-12-29T15:21:50;95318.94;;;10.21
40047;BMP280;31510;48.122;11.576;2022-12-29T15:24:15;95313.59;;;10.21
40047;BMP280;31510;48.122;11.576;2022-12-29T15:26:44;95314.81;;;10.20
40047;BMP280;31510;48.122;11.576;2022-12-29T15:29:35;95320.72;;;10.15
40047;BMP280;31510;48.122;11.576;2022-12-29T15:32:16;95317.91;;;10.10
40047;BMP280;31510;48.122;11.576;2022-12-29T15:34:44;95315.09;;;10.04
40047;BMP280;31510;48.122;11.576;2022-12-29T15:37:09;95312.88;;;10.03
40047;BMP280;31510;48.122;11.576;2022-12-29T15:39:35;95304.88;;;10.03
40047;BMP280;31510;48.122;11.576;2022-12-29T15:42:29;95317.91;;;10.01
40047;BMP280;31510;48.122;11.576;2022-12-29T15:44:56;95317.91;;;10.01
40047;BMP280;31510;48.122;11.576;2022-12-29T15:47:24;95311.50;;;9.98
40047;BMP280;31510;48.122;11.576;2022-12-29T15:49:53;95319.50;;;9.98
40047;BMP280;31510;48.122;11.576;2022-12-29T15:52:20;95327.63;;;9.95
40047;BMP280;31510;48.122;11.576;2022-12-29T15:54:48;95318.63;;;9.93
40047;BMP280;31510;48.122;11.576;2022-12-29T15:57:22;95316.81;;;9.90
40047;BMP280;31510;48.122;11.576;2022-12-29T15:59:48;95310.00;;;9.89
40047;BMP280;31510;48.122;11.576;2022-12-29T16:02:13;95313.53;;;9.86
40047;BMP280;31510;48.122;11.576;2022-12-29T16:04:39;95319.75;;;9.83
40047;BMP280;31510;48.122;11.576;2022-12-29T16:07:19;95325.66;;;9.78
40047;BMP280;31510;48.122;11.576;2022-12-29T16:09:47;95319.00;;;9.73
40047;BMP280;31510;48.122;11.576;2022-12-29T16:12:20;95315.75;;;9.69
40047;BMP280;31510;48.122;11.576;2022-12-29T16:14:50;95335.41;;;9.72
40047;BMP280;31510;48.122;11.576;2022-12-29T16:17:19;95327.88;;;9.79
40047;BMP280;31510;48.122;11.576;2022-12-29T16:20:37;95331.47;;;9.85
40047;BMP280;31510;48.122;11.576;2022-12-29T16:22:59;95328.94;;;9.91
40047;BMP280;31510;48.122;11.576;2022-12-29T16:25:29;95322.84;;;9.90
40047;BMP280;31510;48.122;11.576;2022-12-29T16:27:57;95329.69;;;9.91
40047;BMP280;31510;48.122;11.576;2022-12-29T16:30:32;95330.44;;;9.92